KOWI

Ottawa Municipal Airport

Ottawa, Kansas, USA
METAR KOWI 241345Z AUTO 16010KT 9SM CLR 22/20 A3009 RMK AO2
Observed Flight Rules
May-24 @ 13:45 UTC (9 minutes ago) Visual Flight Rules
Wind Visibility Clouds
160° at 10 knots 9 miles
  • Clear skies
Temperatures Readings
Current 22°C / 72°F
Dewpoint 20°C / 68°F
Humidity 88%
Altimeter 30.09" Hg
Pressure 1019 hPa
Elevation 292
METAR KOWI 241345Z AUTO 16010KT 9SM CLR 22/20 A3009 RMK AO2
Observed Flight Rules
May-24 @ 13:45 UTC
(9 minutes ago)
VFR
Wind Visibility
160° at 10 knots 9 miles
Clouds
  • Clear skies
Temperature Dewpoint
22°C / 72°F 20°C / 68°F
Humidity Altimeter Pressure
88% 30.09" Hg 1019 hPa